createdAt,value
2024-02-04T00:00:33.093Z,9.70
2024-02-04T00:01:33.059Z,9.72
2024-02-04T00:02:32.965Z,9.70
2024-02-04T00:03:33.064Z,9.69
2024-02-04T00:04:33.066Z,9.70
2024-02-04T00:05:32.928Z,9.63
2024-02-04T00:06:33.132Z,9.57
2024-02-04T00:07:32.918Z,9.57
2024-02-04T00:08:32.885Z,9.59
2024-02-04T00:09:35.141Z,9.65
2024-02-04T00:10:32.923Z,9.60
2024-02-04T00:11:32.883Z,9.63
2024-02-04T00:12:32.914Z,9.62
2024-02-04T00:13:32.852Z,9.69
2024-02-04T00:14:32.848Z,9.60
2024-02-04T00:15:32.867Z,9.60
2024-02-04T00:16:32.801Z,9.72
2024-02-04T00:17:32.838Z,9.69
2024-02-04T00:18:32.879Z,9.54
2024-02-04T00:19:32.898Z,9.70
2024-02-04T00:20:32.790Z,9.60
2024-02-04T00:21:32.802Z,9.60
2024-02-04T00:22:32.732Z,9.63
2024-02-04T00:23:32.737Z,9.55
2024-02-04T00:24:32.810Z,9.66
2024-02-04T00:25:32.818Z,9.55
2024-02-04T00:26:32.724Z,9.57
2024-02-04T00:27:32.701Z,9.60
2024-02-04T00:28:32.702Z,9.59
2024-02-04T00:29:32.691Z,9.57
2024-02-04T00:30:32.741Z,9.55
2024-02-04T00:31:32.670Z,9.52
2024-02-04T00:32:32.738Z,9.60
2024-02-04T00:33:32.734Z,9.52
2024-02-04T00:34:32.686Z,9.47
2024-02-04T00:35:32.659Z,9.51
2024-02-04T00:36:32.593Z,9.50
2024-02-04T00:37:32.585Z,9.42
2024-02-04T00:38:32.564Z,9.45
2024-02-04T00:39:32.615Z,9.50
2024-02-04T00:40:34.564Z,9.42
2024-02-04T00:41:32.540Z,9.48
2024-02-04T00:42:32.545Z,9.45
2024-02-04T00:43:32.520Z,9.45
2024-02-04T00:44:32.501Z,9.37
2024-02-04T00:45:32.570Z,9.41
2024-02-04T00:46:32.538Z,9.41
2024-02-04T00:47:32.481Z,9.37
2024-02-04T00:48:32.677Z,9.41
2024-02-04T00:49:32.565Z,9.32
2024-02-04T00:50:32.438Z,9.23
2024-02-04T00:51:32.480Z,9.36
2024-02-04T00:52:32.412Z,9.30
2024-02-04T00:53:32.407Z,9.36
2024-02-04T00:54:32.418Z,9.34
2024-02-04T00:55:32.418Z,9.30
2024-02-04T00:56:32.369Z,9.30
2024-02-04T00:57:32.402Z,9.18
2024-02-04T00:58:32.375Z,9.19
2024-02-04T00:59:32.350Z,9.14
2024-02-04T01:00:32.396Z,9.15
2024-02-04T01:01:32.453Z,9.19
2024-02-04T01:02:32.333Z,9.09
2024-02-04T01:03:32.819Z,9.12
2024-02-04T01:04:32.483Z,9.14
2024-02-04T01:05:32.338Z,9.03
2024-02-04T01:06:37.444Z,9.11
2024-02-04T01:07:33.291Z,9.08
2024-02-04T01:08:32.244Z,9.08
2024-02-04T01:09:32.324Z,9.01
2024-02-04T01:10:32.220Z,9.06
2024-02-04T01:11:32.241Z,8.99
2024-02-04T01:12:32.243Z,8.98
2024-02-04T01:13:32.186Z,8.98
2024-02-04T01:14:32.213Z,8.93
2024-02-04T01:15:32.220Z,8.92
2024-02-04T01:16:32.162Z,8.99
2024-02-04T01:17:32.179Z,8.90
2024-02-04T01:18:32.186Z,8.92
2024-02-04T01:19:32.201Z,8.92
2024-02-04T01:20:32.144Z,8.90
2024-02-04T01:21:32.122Z,8.92
2024-02-04T01:22:32.147Z,8.92
2024-02-04T01:23:32.104Z,8.85
2024-02-04T01:24:32.103Z,8.85
2024-02-04T01:25:32.081Z,8.74
2024-02-04T01:26:32.083Z,8.81
2024-02-04T01:27:32.123Z,8.86
2024-02-04T01:28:32.043Z,8.83
2024-02-04T01:29:32.015Z,8.81
2024-02-04T01:30:32.052Z,8.85
2024-02-04T01:31:31.999Z,8.83
2024-02-04T01:32:32.056Z,8.77
2024-02-04T01:33:32.102Z,8.80
2024-02-04T01:34:32.032Z,8.77
2024-02-04T01:35:31.969Z,8.72
2024-02-04T01:36:32.007Z,8.78
2024-02-04T01:37:31.964Z,8.78
2024-02-04T01:38:31.934Z,8.70
2024-02-04T01:39:31.985Z,8.71
2024-02-04T01:40:31.963Z,8.77
2024-02-04T01:41:32.049Z,8.57
2024-02-04T01:42:32.055Z,8.62
2024-02-04T01:43:31.862Z,8.62
2024-02-04T01:44:31.875Z,8.60
2024-02-04T01:45:31.884Z,8.60
2024-02-04T01:46:31.866Z,8.62
2024-02-04T01:47:31.834Z,8.57
2024-02-04T01:48:31.931Z,8.53
2024-02-04T01:49:31.945Z,8.60
2024-02-04T01:50:31.788Z,8.53
2024-02-04T01:51:31.856Z,8.55
2024-02-04T01:52:31.776Z,8.49
2024-02-04T01:53:31.776Z,8.52
2024-02-04T01:54:31.749Z,8.41
2024-02-04T01:55:31.735Z,8.39
2024-02-04T01:56:31.739Z,8.37
2024-02-04T01:57:31.755Z,8.49
2024-02-04T01:58:31.724Z,8.38
2024-02-04T01:59:31.832Z,8.34
2024-02-04T02:00:31.748Z,8.41
2024-02-04T02:01:31.713Z,8.41
2024-02-04T02:02:31.689Z,8.37
2024-02-04T02:03:31.697Z,8.37
2024-02-04T02:04:31.828Z,8.47
2024-02-04T02:05:31.625Z,8.41
2024-02-04T02:06:31.698Z,8.42
2024-02-04T02:07:31.693Z,8.41
2024-02-04T02:08:31.597Z,8.37
2024-02-04T02:09:31.766Z,8.39
2024-02-04T02:10:31.672Z,8.32
2024-02-04T02:11:31.566Z,8.38
2024-02-04T02:12:31.597Z,8.41
2024-02-04T02:13:31.580Z,8.32
2024-02-04T02:14:31.536Z,8.34
2024-02-04T02:15:31.544Z,8.31
2024-02-04T02:16:31.507Z,8.31
2024-02-04T02:17:31.744Z,8.32
2024-02-04T02:18:31.670Z,8.34
2024-02-04T02:19:31.575Z,8.28
2024-02-04T02:20:31.463Z,8.28
2024-02-04T02:21:31.584Z,8.34
2024-02-04T02:22:31.472Z,8.35
2024-02-04T02:23:31.460Z,8.34
2024-02-04T02:24:31.458Z,8.34
2024-02-04T02:25:31.438Z,8.20
2024-02-04T02:26:31.403Z,8.19
2024-02-04T02:27:31.441Z,8.21
2024-02-04T02:28:31.413Z,8.21
2024-02-04T02:29:31.372Z,8.17
2024-02-04T02:30:31.411Z,8.20
2024-02-04T02:31:40.264Z,8.26
2024-02-04T02:32:32.447Z,8.20
2024-02-04T02:33:31.400Z,8.24
2024-02-04T02:34:38.451Z,8.21
2024-02-04T02:35:32.343Z,8.13
2024-02-04T02:36:31.327Z,8.24
2024-02-04T02:37:31.288Z,8.21
2024-02-04T02:38:31.273Z,8.12
2024-02-04T02:39:31.284Z,8.13
2024-02-04T02:40:31.277Z,8.14
2024-02-04T02:41:31.241Z,8.13
2024-02-04T02:42:31.304Z,8.14
2024-02-04T02:43:31.214Z,8.14
2024-02-04T02:44:31.237Z,8.13
2024-02-04T02:45:31.254Z,8.16
2024-02-04T02:46:31.236Z,8.20
2024-02-04T02:47:31.223Z,8.13
2024-02-04T02:48:31.280Z,8.17
2024-02-04T02:49:31.247Z,8.14
2024-02-04T02:50:31.183Z,8.10
2024-02-04T02:51:31.179Z,8.20
2024-02-04T02:52:31.131Z,8.10
2024-02-04T02:53:31.105Z,8.17
2024-02-04T02:54:31.138Z,8.24
2024-02-04T02:55:31.087Z,8.24
2024-02-04T02:56:31.078Z,8.26
2024-02-04T02:57:31.103Z,8.21
2024-02-04T02:58:31.054Z,8.23
2024-02-04T02:59:31.038Z,8.24
2024-02-04T03:00:31.167Z,8.24
2024-02-04T03:01:31.158Z,8.32
2024-02-04T03:02:31.006Z,8.23
2024-02-04T03:03:31.084Z,8.37
2024-02-04T03:04:31.088Z,8.34
2024-02-04T03:05:31.042Z,8.37
2024-02-04T03:06:31.028Z,8.35
2024-02-04T03:07:30.947Z,8.32
2024-02-04T03:08:30.947Z,8.34
2024-02-04T03:09:30.979Z,8.26
2024-02-04T03:10:30.932Z,8.23
2024-02-04T03:11:30.934Z,8.38
2024-02-04T03:12:30.941Z,8.39
2024-02-04T03:13:30.886Z,8.35
2024-02-04T03:14:30.905Z,8.38
2024-02-04T03:15:30.929Z,8.42
2024-02-04T03:16:30.857Z,8.42
2024-02-04T03:17:30.869Z,8.47
2024-02-04T03:18:30.859Z,8.41
2024-02-04T03:19:30.890Z,8.46
2024-02-04T03:20:30.816Z,8.44
2024-02-04T03:21:30.828Z,8.38
2024-02-04T03:22:30.844Z,8.44
2024-02-04T03:23:30.782Z,8.47
2024-02-04T03:24:30.833Z,8.41
2024-02-04T03:25:30.758Z,8.39
2024-02-04T03:26:30.752Z,8.47
2024-02-04T03:27:30.829Z,8.56
2024-02-04T03:28:30.732Z,8.41
2024-02-04T03:29:30.717Z,8.44
2024-02-04T03:30:30.724Z,8.49
2024-02-04T03:31:30.692Z,8.50
2024-02-04T03:32:30.776Z,8.50
2024-02-04T03:33:30.783Z,8.50
2024-02-04T03:34:30.740Z,8.56
2024-02-04T03:35:30.680Z,8.57
2024-02-04T03:36:30.656Z,8.52
2024-02-04T03:37:30.633Z,8.55
2024-02-04T03:38:30.672Z,8.57
2024-02-04T03:39:30.632Z,8.56
2024-02-04T03:40:30.638Z,8.60
2024-02-04T03:41:30.590Z,8.62
2024-02-04T03:42:30.640Z,8.52
2024-02-04T03:43:30.564Z,8.56
2024-02-04T03:44:30.558Z,8.53
2024-02-04T03:45:30.580Z,8.52
2024-02-04T03:46:30.538Z,8.49
2024-02-04T03:47:30.569Z,8.57
2024-02-04T03:48:30.612Z,8.57
2024-02-04T03:49:30.699Z,8.57
2024-02-04T03:50:30.520Z,8.59
2024-02-04T03:51:30.531Z,8.62
2024-02-04T03:52:30.479Z,8.60
2024-02-04T03:53:30.458Z,8.56
2024-02-04T03:54:30.495Z,8.60
2024-02-04T03:55:30.467Z,8.49
2024-02-04T03:56:30.432Z,8.65
2024-02-04T03:57:30.448Z,8.60
2024-02-04T03:58:30.415Z,8.65
2024-02-04T03:59:30.405Z,8.53
2024-02-04T04:00:30.473Z,8.56
2024-02-04T04:01:30.421Z,8.50
2024-02-04T04:02:30.362Z,8.52
2024-02-04T04:03:30.407Z,8.55
2024-02-04T04:04:30.564Z,8.56
2024-02-04T04:05:30.432Z,8.44
2024-02-04T04:06:30.469Z,8.39
2024-02-04T04:07:30.388Z,8.47
2024-02-04T04:08:30.302Z,8.41
2024-02-04T04:09:30.299Z,8.55
2024-02-04T04:10:30.307Z,8.53
2024-02-04T04:11:30.272Z,8.57
2024-02-04T04:12:30.329Z,8.56
2024-02-04T04:13:30.369Z,8.53
2024-02-04T04:14:30.248Z,8.49
2024-02-04T04:15:30.254Z,8.46
2024-02-04T04:16:30.213Z,8.47
2024-02-04T04:17:30.265Z,8.37
2024-02-04T04:18:30.281Z,8.46
2024-02-04T04:19:30.486Z,8.38
2024-02-04T04:20:30.178Z,8.49
2024-02-04T04:21:30.218Z,8.47
2024-02-04T04:22:30.170Z,8.55
2024-02-04T04:23:30.157Z,8.56
2024-02-04T04:24:30.135Z,8.39
2024-02-04T04:25:30.122Z,8.41
2024-02-04T04:26:30.132Z,8.53
2024-02-04T04:27:30.105Z,8.41
2024-02-04T04:28:30.105Z,8.35
2024-02-04T04:29:30.072Z,8.38
2024-02-04T04:30:30.146Z,8.44
2024-02-04T04:31:30.118Z,8.47
2024-02-04T04:32:30.082Z,8.37
2024-02-04T04:33:30.141Z,8.41
2024-02-04T04:34:30.071Z,8.39
2024-02-04T04:35:30.007Z,8.39
2024-02-04T04:36:30.043Z,8.39
2024-02-04T04:37:29.986Z,8.42
2024-02-04T04:38:30.000Z,8.44
2024-02-04T04:39:30.022Z,8.38
2024-02-04T04:40:29.955Z,8.37
2024-02-04T04:41:29.942Z,8.38
2024-02-04T04:42:29.964Z,8.31
2024-02-04T04:43:29.945Z,8.35
2024-02-04T04:44:29.915Z,8.42
2024-02-04T04:45:29.988Z,8.24
2024-02-04T04:46:29.892Z,8.47
2024-02-04T04:47:29.946Z,8.31
2024-02-04T04:48:30.052Z,8.39
2024-02-04T04:49:30.045Z,8.37
2024-02-04T04:50:29.856Z,8.38
2024-02-04T04:51:29.886Z,8.38
2024-02-04T04:52:29.840Z,8.34
2024-02-04T04:53:29.821Z,8.38
2024-02-04T04:54:29.877Z,8.37
2024-02-04T04:55:29.790Z,8.35
2024-02-04T04:56:29.788Z,8.32
2024-02-04T04:57:29.814Z,8.23
2024-02-04T04:58:29.794Z,8.35
2024-02-04T04:59:29.782Z,8.29
2024-02-04T05:00:29.774Z,8.39
2024-02-04T05:01:29.758Z,8.46
2024-02-04T05:02:29.716Z,8.41
2024-02-04T05:03:29.824Z,8.41
2024-02-04T05:04:29.905Z,8.38
2024-02-04T05:05:29.683Z,8.42
2024-02-04T05:06:29.765Z,8.37
2024-02-04T05:07:29.710Z,8.24
2024-02-04T05:08:29.663Z,8.32
2024-02-04T05:09:29.707Z,8.31
2024-02-04T05:10:29.636Z,8.31
2024-02-04T05:11:29.628Z,8.29
2024-02-04T05:12:29.630Z,8.24
2024-02-04T05:13:29.614Z,8.21
2024-02-04T05:14:29.637Z,8.28
2024-02-04T05:15:29.604Z,8.20
2024-02-04T05:16:29.564Z,8.26
2024-02-04T05:17:29.607Z,8.31
2024-02-04T05:18:29.686Z,8.20
2024-02-04T05:19:29.656Z,8.14
2024-02-04T05:20:29.526Z,8.16
2024-02-04T05:21:29.548Z,8.17
2024-02-04T05:22:29.516Z,8.17
2024-02-04T05:23:29.495Z,8.23
2024-02-04T05:24:29.550Z,8.24
2024-02-04T05:25:29.469Z,8.20
2024-02-04T05:26:29.469Z,8.20
2024-02-04T05:27:29.510Z,8.16
2024-02-04T05:28:29.478Z,8.12
2024-02-04T05:29:29.520Z,8.14
2024-02-04T05:30:29.478Z,8.12
2024-02-04T05:31:29.459Z,8.14
2024-02-04T05:32:29.430Z,8.13
2024-02-04T05:33:29.457Z,8.10
2024-02-04T05:34:29.434Z,8.12
2024-02-04T05:35:29.401Z,8.14
2024-02-04T05:36:29.386Z,8.14
2024-02-04T05:37:29.344Z,8.13
2024-02-04T05:38:29.339Z,8.13
2024-02-04T05:39:29.350Z,8.14
2024-02-04T05:40:29.346Z,8.12
2024-02-04T05:41:29.300Z,8.14
2024-02-04T05:42:29.306Z,8.10
2024-02-04T05:43:29.280Z,8.13
2024-02-04T05:44:29.277Z,8.14
2024-02-04T05:45:29.312Z,8.13
2024-02-04T05:46:29.532Z,8.09
2024-02-04T05:47:29.271Z,8.04
2024-02-04T05:48:29.434Z,8.02
2024-02-04T05:49:29.394Z,7.98
2024-02-04T05:50:29.262Z,7.98
2024-02-04T05:51:29.222Z,8.01
2024-02-04T05:52:29.181Z,8.06
2024-02-04T05:53:29.186Z,7.99
2024-02-04T05:54:29.185Z,8.01
2024-02-04T05:55:29.152Z,7.99
2024-02-04T05:56:29.130Z,7.98
2024-02-04T05:57:29.189Z,7.99
2024-02-04T05:58:29.113Z,8.04
2024-02-04T05:59:29.143Z,8.05
2024-02-04T06:00:29.179Z,8.05
2024-02-04T06:01:29.091Z,8.01
2024-02-04T06:02:29.182Z,8.01
2024-02-04T06:03:31.453Z,8.04
2024-02-04T06:04:29.152Z,8.05
2024-02-04T06:05:29.039Z,8.05
2024-02-04T06:06:29.244Z,8.12
2024-02-04T06:07:29.082Z,8.02
2024-02-04T06:08:29.002Z,8.02
2024-02-04T06:09:29.049Z,7.96
2024-02-04T06:10:28.994Z,8.02
2024-02-04T06:11:28.969Z,8.02
2024-02-04T06:12:29.000Z,8.10
2024-02-04T06:13:28.958Z,8.02
2024-02-04T06:14:28.976Z,8.01
2024-02-04T06:15:29.004Z,8.14
2024-02-04T06:16:28.919Z,7.99
2024-02-04T06:17:28.949Z,8.10
2024-02-04T06:18:29.023Z,8.10
2024-02-04T06:19:29.075Z,8.09
2024-02-04T06:20:28.869Z,8.13
2024-02-04T06:21:28.914Z,8.12
2024-02-04T06:22:28.849Z,8.14
2024-02-04T06:23:28.871Z,8.14
2024-02-04T06:24:28.905Z,8.10
2024-02-04T06:25:28.918Z,8.21
2024-02-04T06:26:28.805Z,8.12
2024-02-04T06:27:28.902Z,8.06
2024-02-04T06:28:29.046Z,8.10
2024-02-04T06:29:28.806Z,8.23
2024-02-04T06:30:28.841Z,8.14
2024-02-04T06:31:28.773Z,8.17
2024-02-04T06:32:28.802Z,8.14
2024-02-04T06:33:28.950Z,8.20
2024-02-04T06:34:28.939Z,8.12
2024-02-04T06:35:28.723Z,8.19
2024-02-04T06:36:28.844Z,8.09
2024-02-04T06:37:28.797Z,8.16
2024-02-04T06:38:28.700Z,8.17
2024-02-04T06:39:28.772Z,8.13
2024-02-04T06:40:28.669Z,8.13
2024-02-04T06:41:28.662Z,8.17
2024-02-04T06:42:28.688Z,8.14
2024-02-04T06:43:28.643Z,8.23
2024-02-04T06:44:28.660Z,8.14
2024-02-04T06:45:28.671Z,8.14
2024-02-04T06:46:28.599Z,8.19
2024-02-04T06:47:28.679Z,8.13
2024-02-04T06:48:28.641Z,8.19
2024-02-04T06:49:28.796Z,8.13
2024-02-04T06:50:28.666Z,8.10
2024-02-04T06:51:28.788Z,8.16
2024-02-04T06:52:28.534Z,8.10
2024-02-04T06:53:28.562Z,8.13
2024-02-04T06:54:28.560Z,8.12
2024-02-04T06:55:28.503Z,8.12
2024-02-04T06:56:28.491Z,8.13
2024-02-04T06:57:28.537Z,8.16
2024-02-04T06:58:28.506Z,8.14
2024-02-04T06:59:28.467Z,8.10
2024-02-04T07:00:28.500Z,8.09
2024-02-04T07:01:28.593Z,8.16
2024-02-04T07:02:28.424Z,8.13
2024-02-04T07:03:28.627Z,8.17
2024-02-04T07:04:28.537Z,8.16
2024-02-04T07:05:28.429Z,8.13
2024-02-04T07:06:28.536Z,8.23
2024-02-04T07:07:28.371Z,8.16
2024-02-04T07:08:28.356Z,8.24
2024-02-04T07:09:28.374Z,8.06
2024-02-04T07:10:28.331Z,8.28
2024-02-04T07:11:28.344Z,8.20
2024-02-04T07:12:28.332Z,8.20
2024-02-04T07:13:28.300Z,8.19
2024-02-04T07:14:28.336Z,8.21
2024-02-04T07:15:28.309Z,8.21
2024-02-04T07:16:28.275Z,8.23
2024-02-04T07:17:28.328Z,8.21
2024-02-04T07:18:28.433Z,8.24
2024-02-04T07:19:28.332Z,8.24
2024-02-04T07:20:28.231Z,8.20
2024-02-04T07:21:28.245Z,8.31
2024-02-04T07:22:28.269Z,8.19
2024-02-04T07:23:28.219Z,8.23
2024-02-04T07:24:28.253Z,8.17
2024-02-04T07:25:28.190Z,8.17
2024-02-04T07:26:28.179Z,8.28
2024-02-04T07:27:28.189Z,8.21
2024-02-04T07:28:28.148Z,8.24
2024-02-04T07:29:28.162Z,8.26
2024-02-04T07:30:28.175Z,8.31
2024-02-04T07:31:28.108Z,8.32
2024-02-04T07:32:28.153Z,8.32
2024-02-04T07:33:31.010Z,8.34
2024-02-04T07:34:28.146Z,8.32
2024-02-04T07:35:28.068Z,8.37
2024-02-04T07:36:28.093Z,8.35
2024-02-04T07:37:28.186Z,8.35
2024-02-04T07:38:28.091Z,8.39
2024-02-04T07:39:28.171Z,8.34
2024-02-04T07:40:28.048Z,8.31
2024-02-04T07:41:28.048Z,8.39
2024-02-04T07:42:28.074Z,8.32
2024-02-04T07:43:28.030Z,8.38
2024-02-04T07:44:27.980Z,8.37
2024-02-04T07:45:28.023Z,8.42
2024-02-04T07:46:27.988Z,8.46
2024-02-04T07:47:27.950Z,8.42
2024-02-04T07:48:28.097Z,8.38
2024-02-04T07:49:28.028Z,8.39
2024-02-04T07:50:28.005Z,8.39
2024-02-04T07:51:27.978Z,8.37
2024-02-04T07:52:27.947Z,8.41
2024-02-04T07:53:27.881Z,8.38
2024-02-04T07:54:27.950Z,8.52
2024-02-04T07:55:27.874Z,8.46
2024-02-04T07:56:27.903Z,8.50
2024-02-04T07:57:27.914Z,8.44
2024-02-04T07:58:27.842Z,8.53
2024-02-04T07:59:27.821Z,8.47
2024-02-04T08:00:27.896Z,8.53
2024-02-04T08:01:28.202Z,8.60
2024-02-04T08:02:27.825Z,8.57
2024-02-04T08:03:27.838Z,8.59
2024-02-04T08:04:27.880Z,8.56
2024-02-04T08:05:27.779Z,8.63
2024-02-04T08:06:27.786Z,8.60
2024-02-04T08:07:27.902Z,8.62
2024-02-04T08:08:27.729Z,8.65
2024-02-04T08:09:27.759Z,8.68
2024-02-04T08:10:27.852Z,8.77
2024-02-04T08:11:27.702Z,8.68
2024-02-04T08:12:27.745Z,8.71
2024-02-04T08:13:27.670Z,8.78
2024-02-04T08:14:27.669Z,8.75
2024-02-04T08:15:27.728Z,8.78
2024-02-04T08:16:27.683Z,8.88
2024-02-04T08:17:27.664Z,8.83
2024-02-04T08:18:27.713Z,8.89
2024-02-04T08:19:27.805Z,8.88
2024-02-04T08:20:27.602Z,8.89
2024-02-04T08:21:27.678Z,8.88
2024-02-04T08:22:27.602Z,8.95
2024-02-04T08:23:27.573Z,8.92
2024-02-04T08:24:27.616Z,8.99
2024-02-04T08:25:27.542Z,9.01
2024-02-04T08:26:27.546Z,8.88
2024-02-04T08:27:27.588Z,8.95
2024-02-04T08:28:27.533Z,9.06
2024-02-04T08:29:27.497Z,9.08
2024-02-04T08:30:27.495Z,9.09
2024-02-04T08:31:27.479Z,9.09
2024-02-04T08:32:27.490Z,9.14
2024-02-04T08:33:27.530Z,9.09
2024-02-04T08:34:27.633Z,9.11
2024-02-04T08:35:27.443Z,9.14
2024-02-04T08:36:27.491Z,9.12
2024-02-04T08:37:28.945Z,9.16
2024-02-04T08:38:27.419Z,9.09
2024-02-04T08:39:27.481Z,9.19
2024-02-04T08:40:27.394Z,9.22
2024-02-04T08:41:27.402Z,9.14
2024-02-04T08:42:27.429Z,9.15
2024-02-04T08:43:27.365Z,9.19
2024-02-04T08:44:35.853Z,9.16
2024-02-04T08:45:28.420Z,9.19
2024-02-04T08:46:27.396Z,9.19
2024-02-04T08:47:27.314Z,9.29
2024-02-04T08:48:27.405Z,9.30
2024-02-04T08:49:27.421Z,9.29
2024-02-04T08:50:27.288Z,9.24
2024-02-04T08:51:30.420Z,9.29
2024-02-04T08:52:27.364Z,9.29
2024-02-04T08:53:27.271Z,9.29
2024-02-04T08:54:27.359Z,9.24
2024-02-04T08:55:27.230Z,9.33
2024-02-04T08:56:27.192Z,9.34
2024-02-04T08:57:27.212Z,9.34
2024-02-04T08:58:27.192Z,9.36
2024-02-04T08:59:27.199Z,9.32
2024-02-04T09:00:27.215Z,9.29
2024-02-04T09:01:27.202Z,9.24
2024-02-04T09:02:27.156Z,9.32
2024-02-04T09:03:27.200Z,9.33
2024-02-04T09:04:27.227Z,9.36
2024-02-04T09:05:27.103Z,9.37
2024-02-04T09:06:27.182Z,9.41
2024-02-04T09:07:27.433Z,9.36
2024-02-04T09:08:27.061Z,9.34
2024-02-04T09:09:27.152Z,9.34
2024-02-04T09:10:27.036Z,9.42
2024-02-04T09:11:27.049Z,9.40
2024-02-04T09:12:27.090Z,9.40
2024-02-04T09:13:27.095Z,9.37
2024-02-04T09:14:27.056Z,9.40
2024-02-04T09:15:27.094Z,9.42
2024-02-04T09:16:27.103Z,9.40
2024-02-04T09:17:26.969Z,9.48
2024-02-04T09:18:27.105Z,9.47
2024-02-04T09:19:27.251Z,9.45
2024-02-04T09:20:27.029Z,9.44
2024-02-04T09:21:27.158Z,9.48
2024-02-04T09:22:27.013Z,9.45
2024-02-04T09:23:27.000Z,9.51
2024-02-04T09:24:26.919Z,9.57
2024-02-04T09:25:26.959Z,9.50
2024-02-04T09:26:26.927Z,9.45
2024-02-04T09:27:27.204Z,9.50
2024-02-04T09:28:26.895Z,9.44
2024-02-04T09:29:26.900Z,9.54
2024-02-04T09:30:26.990Z,9.65
2024-02-04T09:31:27.092Z,9.54
2024-02-04T09:32:26.963Z,9.60
2024-02-04T09:33:27.021Z,9.54
2024-02-04T09:34:26.902Z,9.59
2024-02-04T09:35:27.001Z,9.55
2024-02-04T09:36:26.841Z,9.62
2024-02-04T09:37:26.867Z,9.63
2024-02-04T09:38:26.848Z,9.62
2024-02-04T09:39:26.816Z,9.66
2024-02-04T09:40:26.826Z,9.62
2024-02-04T09:41:26.744Z,9.70
2024-02-04T09:42:26.713Z,9.60
2024-02-04T09:43:26.740Z,9.65
2024-02-04T09:44:26.699Z,9.62
2024-02-04T09:45:26.799Z,9.77
2024-02-04T09:46:26.770Z,9.72
2024-02-04T09:47:26.779Z,9.75
2024-02-04T09:48:26.935Z,9.70
2024-02-04T09:49:26.815Z,9.81
2024-02-04T09:50:26.747Z,9.87
2024-02-04T09:51:26.701Z,9.90
2024-02-04T09:52:26.647Z,9.81
2024-02-04T09:53:26.589Z,9.83
2024-02-04T09:54:26.666Z,9.91
2024-02-04T09:55:26.649Z,9.94
2024-02-04T09:56:26.604Z,9.90
2024-02-04T09:57:26.633Z,9.85
2024-02-04T09:58:26.537Z,9.91
2024-02-04T09:59:26.515Z,9.90
2024-02-04T10:00:26.595Z,9.87
2024-02-04T10:01:26.581Z,9.91
2024-02-04T10:02:26.596Z,9.80
2024-02-04T10:03:26.515Z,10.01
2024-02-04T10:04:26.571Z,9.98
2024-02-04T10:05:26.670Z,9.87
2024-02-04T10:06:26.672Z,9.93
2024-02-04T10:07:26.671Z,10.01
2024-02-04T10:08:26.871Z,9.85
2024-02-04T10:09:26.513Z,9.84
2024-02-04T10:10:26.454Z,9.81
2024-02-04T10:11:26.470Z,9.85
2024-02-04T10:12:26.425Z,9.81
2024-02-04T10:13:26.358Z,9.96
2024-02-04T10:14:26.354Z,9.98
2024-02-04T10:15:26.485Z,9.93
2024-02-04T10:16:26.349Z,10.03
2024-02-04T10:17:26.364Z,10.03
2024-02-04T10:18:26.451Z,9.93
2024-02-04T10:19:26.464Z,9.94
2024-02-04T10:20:26.298Z,10.01
2024-02-04T10:21:26.510Z,10.09
2024-02-04T10:22:26.266Z,10.08
2024-02-04T10:23:26.263Z,10.10
2024-02-04T10:24:26.266Z,10.08
2024-02-04T10:25:26.232Z,10.12
2024-02-04T10:26:26.236Z,10.03
2024-02-04T10:27:32.200Z,10.20
2024-02-04T10:28:27.294Z,10.18
2024-02-04T10:29:26.186Z,10.24
2024-02-04T10:30:26.301Z,10.30
2024-02-04T10:31:26.172Z,10.26
2024-02-04T10:32:26.301Z,10.24
2024-02-04T10:33:26.233Z,10.41
2024-02-04T10:34:26.259Z,10.34
2024-02-04T10:35:26.215Z,10.39
2024-02-04T10:36:26.256Z,10.34
2024-02-04T10:37:29.416Z,10.36
2024-02-04T10:38:26.098Z,10.43
2024-02-04T10:39:26.077Z,10.49
2024-02-04T10:40:26.096Z,10.43
2024-02-04T10:41:26.089Z,10.43
2024-02-04T10:42:26.140Z,10.43
2024-02-04T10:43:26.050Z,10.42
2024-02-04T10:44:26.030Z,10.42
2024-02-04T10:45:26.017Z,10.39
2024-02-04T10:46:26.806Z,10.34
2024-02-04T10:47:26.124Z,10.42
2024-02-04T10:48:26.049Z,10.46
2024-02-04T10:49:26.039Z,10.42
2024-02-04T10:50:25.970Z,10.45
2024-02-04T10:51:25.959Z,10.45
2024-02-04T10:52:25.930Z,10.49
2024-02-04T10:53:26.011Z,10.57
2024-02-04T10:54:25.912Z,10.46
2024-02-04T10:55:25.890Z,10.58
2024-02-04T10:56:25.983Z,10.43
2024-02-04T10:57:25.892Z,10.42
2024-02-04T10:58:25.898Z,10.41
2024-02-04T10:59:25.859Z,10.42
2024-02-04T11:00:25.859Z,10.43
2024-02-04T11:01:25.893Z,10.36
2024-02-04T11:02:25.822Z,10.41
2024-02-04T11:03:25.876Z,10.43
2024-02-04T11:04:25.984Z,10.46
2024-02-04T11:05:25.783Z,10.41
2024-02-04T11:06:25.864Z,10.43
2024-02-04T11:07:25.795Z,10.41
2024-02-04T11:08:25.783Z,10.41
2024-02-04T11:09:25.778Z,10.46
2024-02-04T11:10:25.749Z,10.48
2024-02-04T11:11:25.916Z,10.43
2024-02-04T11:12:25.713Z,10.42
2024-02-04T11:13:25.711Z,10.43
2024-02-04T11:14:25.724Z,10.41
2024-02-04T11:15:25.684Z,10.38
2024-02-04T11:16:25.696Z,10.35
2024-02-04T11:17:25.778Z,10.46
2024-02-04T11:18:25.715Z,10.45
2024-02-04T11:19:25.754Z,10.41
2024-02-04T11:20:25.621Z,10.41
2024-02-04T11:21:25.654Z,10.28
2024-02-04T11:22:25.705Z,10.34
2024-02-04T11:23:25.602Z,10.34
2024-02-04T11:24:25.610Z,10.28
2024-02-04T11:25:25.579Z,10.24
2024-02-04T11:26:25.560Z,10.30
2024-02-04T11:27:25.549Z,10.36
2024-02-04T11:28:25.685Z,10.30
2024-02-04T11:29:25.533Z,10.34
2024-02-04T11:30:25.520Z,10.24
2024-02-04T11:31:25.624Z,10.31
2024-02-04T11:32:25.608Z,10.26
2024-02-04T11:33:25.673Z,10.31
2024-02-04T11:34:25.717Z,10.27
2024-02-04T11:35:25.603Z,10.35
2024-02-04T11:36:25.490Z,10.23
2024-02-04T11:37:25.595Z,10.24
2024-02-04T11:38:25.555Z,10.27
2024-02-04T11:39:25.417Z,10.21
2024-02-04T11:40:25.503Z,10.23
2024-02-04T11:41:25.690Z,10.20
2024-02-04T11:42:25.397Z,10.21
2024-02-04T11:43:25.469Z,10.21
2024-02-04T11:44:25.372Z,10.26
2024-02-04T11:45:25.360Z,10.23
2024-02-04T11:46:25.356Z,10.23
2024-02-04T11:47:25.534Z,10.28
2024-02-04T11:48:25.486Z,10.21
2024-02-04T11:49:25.482Z,10.26
2024-02-04T11:50:25.475Z,10.27
2024-02-04T11:51:25.359Z,10.24
2024-02-04T11:52:25.355Z,10.24
2024-02-04T11:53:25.439Z,10.18
2024-02-04T11:54:25.346Z,10.17
2024-02-04T11:55:25.331Z,10.26
2024-02-04T11:56:25.334Z,10.16
2024-02-04T11:57:25.288Z,10.20
2024-02-04T11:58:25.317Z,10.20
2024-02-04T11:59:25.223Z,10.26
2024-02-04T12:00:25.201Z,10.24
2024-02-04T12:01:25.236Z,10.26
2024-02-04T12:02:25.188Z,10.27
2024-02-04T12:03:25.278Z,10.24
2024-02-04T12:04:25.171Z,10.31
2024-02-04T12:05:25.162Z,10.26
2024-02-04T12:06:25.154Z,10.27
2024-02-04T12:07:25.221Z,10.23
2024-02-04T12:08:25.177Z,10.27
2024-02-04T12:09:25.101Z,10.27
2024-02-04T12:10:25.116Z,10.21
2024-02-04T12:11:25.105Z,10.27
2024-02-04T12:12:25.071Z,10.24
2024-02-04T12:13:25.095Z,10.18
2024-02-04T12:14:25.073Z,10.26
2024-02-04T12:15:25.044Z,10.20
2024-02-04T12:16:25.058Z,10.24
2024-02-04T12:17:25.031Z,10.16
2024-02-04T12:18:25.110Z,10.23
2024-02-04T12:19:25.150Z,10.20
2024-02-04T12:20:25.076Z,10.12
2024-02-04T12:21:24.966Z,10.20
2024-02-04T12:22:24.956Z,10.23
2024-02-04T12:23:25.047Z,10.20
2024-02-04T12:24:24.963Z,10.17
2024-02-04T12:25:24.925Z,10.24
2024-02-04T12:26:24.934Z,10.27
2024-02-04T12:27:24.917Z,10.20
2024-02-04T12:28:24.917Z,10.27
2024-02-04T12:29:24.915Z,10.17
2024-02-04T12:30:24.872Z,10.17
2024-02-04T12:31:24.888Z,10.12
2024-02-04T12:32:24.943Z,10.14
2024-02-04T12:33:24.890Z,10.17
2024-02-04T12:34:24.882Z,10.14
2024-02-04T12:35:24.818Z,10.05
2024-02-04T12:36:24.808Z,10.18
2024-02-04T12:37:24.826Z,10.18
2024-02-04T12:38:24.820Z,10.06
2024-02-04T12:39:24.818Z,10.09
2024-02-04T12:40:24.763Z,10.14
2024-02-04T12:41:24.774Z,10.16
2024-02-04T12:42:24.782Z,10.14
2024-02-04T12:43:24.782Z,10.17
2024-02-04T12:44:24.730Z,10.17
2024-02-04T12:45:24.741Z,10.20
2024-02-04T12:46:24.800Z,10.14
2024-02-04T12:47:24.720Z,10.14
2024-02-04T12:48:24.679Z,10.18
2024-02-04T12:49:25.095Z,10.20
2024-02-04T12:50:24.735Z,10.21
2024-02-04T12:51:24.644Z,10.24
2024-02-04T12:52:24.643Z,10.24
2024-02-04T12:53:24.640Z,10.27
2024-02-04T12:54:24.653Z,10.28
2024-02-04T12:55:24.637Z,10.34
2024-02-04T12:56:24.599Z,10.26
2024-02-04T12:57:24.583Z,10.38
2024-02-04T12:58:24.601Z,10.31
2024-02-04T12:59:24.607Z,10.28
2024-02-04T13:00:24.553Z,10.36
2024-02-04T13:01:24.622Z,10.28
2024-02-04T13:02:24.532Z,10.34
2024-02-04T13:03:24.524Z,10.28
2024-02-04T13:04:24.644Z,10.38
2024-02-04T13:05:24.626Z,10.45
2024-02-04T13:06:24.527Z,10.45
2024-02-04T13:07:24.583Z,10.39
2024-02-04T13:08:25.107Z,10.42
2024-02-04T13:09:24.542Z,10.30
2024-02-04T13:10:24.503Z,10.36
2024-02-04T13:11:24.445Z,10.43
2024-02-04T13:12:24.431Z,10.43